sensor_id;sensor_type;location;lat;lon;timestamp;pressure;altitude;pressure_sealevel;temperature;humidity
63019;BME280;49105;46.046;10.760;2023-05-11T00:00:35;95280.28;;;10.69;79.87
63019;BME280;49105;46.046;10.760;2023-05-11T00:03:00;95274.50;;;10.67;80.29
63019;BME280;49105;46.046;10.760;2023-05-11T00:05:26;95273.72;;;10.66;80.09
63019;BME280;49105;46.046;10.760;2023-05-11T01:33:30;95208.50;;;10.52;79.70
63019;BME280;49105;46.046;10.760;2023-05-11T01:35:59;95200.00;;;10.55;79.55
63019;BME280;49105;46.046;10.760;2023-05-11T01:38:25;95200.25;;;10.53;79.77
63019;BME280;49105;46.046;10.760;2023-05-11T01:40:53;95191.00;;;10.56;79.71
63019;BME280;49105;46.046;10.760;2023-05-11T01:43:21;95206.88;;;10.56;79.64
63019;BME280;49105;46.046;10.760;2023-05-11T01:45:48;95207.38;;;10.58;80.13
63019;BME280;49105;46.046;10.760;2023-05-11T01:48:18;95203.66;;;10.59;80.05
63019;BME280;49105;46.046;10.760;2023-05-11T01:50:45;95209.75;;;10.59;79.70
63019;BME280;49105;46.046;10.760;2023-05-11T01:53:12;95213.16;;;10.60;80.04
63019;BME280;49105;46.046;10.760;2023-05-11T01:55:38;95209.22;;;10.57;79.74
63019;BME280;49105;46.046;10.760;2023-05-11T01:58:04;95214.00;;;10.55;79.58
63019;BME280;49105;46.046;10.760;2023-05-11T02:00:30;95209.22;;;10.57;79.56
63019;BME280;49105;46.046;10.760;2023-05-11T02:02:56;95200.47;;;10.62;79.92
63019;BME280;49105;46.046;10.760;2023-05-11T02:05:23;95206.00;;;10.60;79.68
63019;BME280;49105;46.046;10.760;2023-05-11T02:07:49;95193.84;;;10.59;79.52
63019;BME280;49105;46.046;10.760;2023-05-11T02:10:15;95207.38;;;10.58;79.76
63019;BME280;49105;46.046;10.760;2023-05-11T02:12:41;95212.16;;;10.56;79.74
63019;BME280;49105;46.046;10.760;2023-05-11T02:15:08;95207.25;;;10.44;79.90
63019;BME280;49105;46.046;10.760;2023-05-11T02:17:34;95200.16;;;10.39;79.96
63019;BME280;49105;46.046;10.760;2023-05-11T02:20:00;95200.41;;;10.43;80.21
63019;BME280;49105;46.046;10.760;2023-05-11T02:22:27;95196.91;;;10.48;80.08
63019;BME280;49105;46.046;10.760;2023-05-11T02:24:54;95200.06;;;10.50;79.77
63019;BME280;49105;46.046;10.760;2023-05-11T02:27:19;95208.03;;;10.44;79.84
63019;BME280;49105;46.046;10.760;2023-05-11T02:29:44;95199.06;;;10.46;79.98
63019;BME280;49105;46.046;10.760;2023-05-11T02:32:11;95198.22;;;10.50;80.26
63019;BME280;49105;46.046;10.760;2023-05-11T02:34:39;95193.63;;;10.56;79.49
63019;BME280;49105;46.046;10.760;2023-05-11T02:37:06;95197.34;;;10.55;79.91
63019;BME280;49105;46.046;10.760;2023-05-11T02:39:34;95208.84;;;10.45;79.80
63019;BME280;49105;46.046;10.760;2023-05-11T02:42:00;95207.63;;;10.32;80.03
63019;BME280;49105;46.046;10.760;2023-05-11T02:44:30;95211.88;;;10.33;79.94
63019;BME280;49105;46.046;10.760;2023-05-11T02:46:58;95213.16;;;10.36;79.96
63019;BME280;49105;46.046;10.760;2023-05-11T02:49:25;95208.25;;;10.48;79.73
63019;BME280;49105;46.046;10.760;2023-05-11T02:51:53;95200.50;;;10.57;79.77
63019;BME280;49105;46.046;10.760;2023-05-11T02:54:19;95197.59;;;10.58;79.24
63019;BME280;49105;46.046;10.760;2023-05-11T02:56:47;95188.03;;;10.57;79.55
63019;BME280;49105;46.046;10.760;2023-05-11T02:59:12;95200.22;;;10.58;79.35
63019;BME280;49105;46.046;10.760;2023-05-11T03:01:38;95198.13;;;10.55;79.15
63019;BME280;49105;46.046;10.760;2023-05-11T03:04:03;95195.78;;;10.54;79.42
63019;BME280;49105;46.046;10.760;2023-05-11T03:06:29;95198.13;;;10.55;79.37
63019;BME280;49105;46.046;10.760;2023-05-11T03:08:55;95199.72;;;10.56;79.47
63019;BME280;49105;46.046;10.760;2023-05-11T03:11:21;95196.84;;;10.53;79.40
63019;BME280;49105;46.046;10.760;2023-05-11T03:13:46;95191.53;;;10.53;79.37
63019;BME280;49105;46.046;10.760;2023-05-11T03:16:11;95190.13;;;10.60;79.24
63019;BME280;49105;46.046;10.760;2023-05-11T03:18:37;95173.69;;;10.63;79.14
63019;BME280;49105;46.046;10.760;2023-05-11T03:21:03;95179.56;;;10.60;78.79
63019;BME280;49105;46.046;10.760;2023-05-11T03:23:29;95174.31;;;10.55;79.31
63019;BME280;49105;46.046;10.760;2023-05-11T03:25:56;95178.06;;;10.54;79.22
63019;BME280;49105;46.046;10.760;2023-05-11T03:28:21;95174.31;;;10.55;79.72
63019;BME280;49105;46.046;10.760;2023-05-11T03:30:48;95173.53;;;10.55;79.34
63019;BME280;49105;46.046;10.760;2023-05-11T03:33:14;95173.31;;;10.51;79.55
63019;BME280;49105;46.046;10.760;2023-05-11T03:35:40;95172.53;;;10.51;79.46
63019;BME280;49105;46.046;10.760;2023-05-11T03:38:05;95180.47;;;10.51;79.63
63019;BME280;49105;46.046;10.760;2023-05-11T03:40:31;95170.16;;;10.49;79.38
63019;BME280;49105;46.046;10.760;2023-05-11T03:42:58;95175.72;;;10.48;79.35
63019;BME280;49105;46.046;10.760;2023-05-11T03:45:26;95165.94;;;10.48;79.81
63019;BME280;49105;46.046;10.760;2023-05-11T03:47:52;95154.56;;;10.48;79.44
63019;BME280;49105;46.046;10.760;2023-05-11T03:50:20;95168.94;;;10.41;79.47
63019;BME280;49105;46.046;10.760;2023-05-11T03:52:46;95153.06;;;10.41;79.66
63019;BME280;49105;46.046;10.760;2023-05-11T03:55:12;95167.56;;;10.44;79.53
63019;BME280;49105;46.046;10.760;2023-05-11T03:57:37;95164.94;;;10.44;79.40
63019;BME280;49105;46.046;10.760;2023-05-11T04:00:02;95162.22;;;10.49;79.36
63019;BME280;49105;46.046;10.760;2023-05-11T04:02:28;95159.63;;;10.44;79.30
63019;BME280;49105;46.046;10.760;2023-05-11T04:04:53;95152.78;;;10.43;79.58
63019;BME280;49105;46.046;10.760;2023-05-11T04:07:19;95163.06;;;10.44;79.43
63019;BME280;49105;46.046;10.760;2023-05-11T04:09:44;95159.88;;;10.48;79.19
63019;BME280;49105;46.046;10.760;2023-05-11T04:12:10;95156.13;;;10.49;79.53
63019;BME280;49105;46.046;10.760;2023-05-11T04:14:35;95154.56;;;10.48;79.03
63019;BME280;49105;46.046;10.760;2023-05-11T04:17:00;95160.66;;;10.48;79.30
63019;BME280;49105;46.046;10.760;2023-05-11T04:19:26;95157.94;;;10.53;79.28
63019;BME280;49105;46.046;10.760;2023-05-11T04:21:51;95163.59;;;10.47;79.36
63019;BME280;49105;46.046;10.760;2023-05-11T04:24:16;95154.13;;;10.40;79.41
63019;BME280;49105;46.046;10.760;2023-05-11T04:26:42;95156.28;;;10.38;79.47
63019;BME280;49105;46.046;10.760;2023-05-11T04:29:07;95159.41;;;10.40;79.11
63019;BME280;49105;46.046;10.760;2023-05-11T04:31:32;95161.50;;;10.43;78.83
63019;BME280;49105;46.046;10.760;2023-05-11T04:33:58;95165.94;;;10.48;79.31
63019;BME280;49105;46.046;10.760;2023-05-11T04:36:23;95165.44;;;10.46;79.31
63019;BME280;49105;46.046;10.760;2023-05-11T04:38:49;95154.09;;;10.46;78.92
63019;BME280;49105;46.046;10.760;2023-05-11T04:41:14;95159.88;;;10.48;79.48
63019;BME280;49105;46.046;10.760;2023-05-11T04:43:39;95158.94;;;10.57;78.97
63019;BME280;49105;46.046;10.760;2023-05-11T04:46:05;95152.94;;;10.52;78.54
63019;BME280;49105;46.046;10.760;2023-05-11T04:48:30;95158.28;;;10.47;78.83
63019;BME280;49105;46.046;10.760;2023-05-11T04:50:55;95158.06;;;10.43;79.01
63019;BME280;49105;46.046;10.760;2023-05-11T04:53:21;95163.13;;;10.39;79.36
63019;BME280;49105;46.046;10.760;2023-05-11T04:55:46;95162.88;;;10.41;79.18
63019;BME280;49105;46.046;10.760;2023-05-11T04:58:12;95162.81;;;10.46;79.27
63019;BME280;49105;46.046;10.760;2023-05-11T05:00:37;95157.84;;;10.39;78.93
63019;BME280;49105;46.046;10.760;2023-05-11T05:03:02;95162.19;;;10.30;79.46
63019;BME280;49105;46.046;10.760;2023-05-11T05:05:28;95160.09;;;10.27;79.25
63019;BME280;49105;46.046;10.760;2023-05-11T05:07:53;95172.47;;;10.32;79.10
63019;BME280;49105;46.046;10.760;2023-05-11T05:10:18;95162.13;;;10.35;78.86
63019;BME280;49105;46.046;10.760;2023-05-11T05:12:44;95164.66;;;10.46;79.09
63019;BME280;49105;46.046;10.760;2023-05-11T05:15:09;95163.03;;;10.50;79.04
63019;BME280;49105;46.046;10.760;2023-05-11T05:17:35;95163.50;;;10.52;78.39
63019;BME280;49105;46.046;10.760;2023-05-11T05:20:01;95160.88;;;10.52;78.45
63019;BME280;49105;46.046;10.760;2023-05-11T05:22:26;95159.31;;;10.51;78.55
63019;BME280;49105;46.046;10.760;2023-05-11T05:24:51;95163.22;;;10.53;78.51
63019;BME280;49105;46.046;10.760;2023-05-11T05:27:16;95168.25;;;10.55;77.95
63019;BME280;49105;46.046;10.760;2023-05-11T05:29:42;95163.50;;;10.52;78.00
63019;BME280;49105;46.046;10.760;2023-05-11T05:32:07;95161.59;;;10.57;78.36
63019;BME280;49105;46.046;10.760;2023-05-11T05:34:32;95161.53;;;10.62;77.80
63019;BME280;49105;46.046;10.760;2023-05-11T05:36:58;95156.97;;;10.68;77.95
63019;BME280;49105;46.046;10.760;2023-05-11T05:39:23;95165.91;;;10.72;77.82
63019;BME280;49105;46.046;10.760;2023-05-11T05:41:48;95161.69;;;10.71;78.19
63019;BME280;49105;46.046;10.760;2023-05-11T05:44:14;95155.41;;;10.67;78.16
63019;BME280;49105;46.046;10.760;2023-05-11T05:46:39;95151.81;;;10.77;77.95
63019;BME280;49105;46.046;10.760;2023-05-11T05:49:04;95144.81;;;10.86;78.10
63019;BME280;49105;46.046;10.760;2023-05-11T05:51:30;95147.34;;;10.96;77.81
63019;BME280;49105;46.046;10.760;2023-05-11T05:53:55;95151.19;;;11.04;77.58
63019;BME280;49105;46.046;10.760;2023-05-11T05:56:20;95152.75;;;11.05;77.55
63019;BME280;49105;46.046;10.760;2023-05-11T05:58:46;95147.34;;;10.96;77.60
63019;BME280;49105;46.046;10.760;2023-05-11T06:01:11;95150.75;;;10.97;77.54
63019;BME280;49105;46.046;10.760;2023-05-11T06:03:36;95152.91;;;10.95;77.75
63019;BME280;49105;46.046;10.760;2023-05-11T06:06:02;95161.28;;;11.02;77.89
63019;BME280;49105;46.046;10.760;2023-05-11T06:08:27;95158.50;;;11.12;77.37
63019;BME280;49105;46.046;10.760;2023-05-11T06:10:53;95154.69;;;11.18;77.21
63019;BME280;49105;46.046;10.760;2023-05-11T06:13:18;95156.78;;;11.21;77.07
63019;BME280;49105;46.046;10.760;2023-05-11T06:15:43;95150.38;;;11.22;77.30
63019;BME280;49105;46.046;10.760;2023-05-11T06:18:09;95151.91;;;11.28;77.31
63019;BME280;49105;46.046;10.760;2023-05-11T06:20:34;95151.03;;;11.33;76.75
63019;BME280;49105;46.046;10.760;2023-05-11T06:22:59;95148.59;;;11.36;76.76
63019;BME280;49105;46.046;10.760;2023-05-11T06:25:25;95148.81;;;11.40;76.97
63019;BME280;49105;46.046;10.760;2023-05-11T06:27:51;95148.44;;;11.47;76.80
63019;BME280;49105;46.046;10.760;2023-05-11T06:30:17;95141.03;;;11.43;76.56
63019;BME280;49105;46.046;10.760;2023-05-11T06:32:42;95145.06;;;11.41;76.07
63019;BME280;49105;46.046;10.760;2023-05-11T06:35:07;95147.72;;;11.41;76.15
63019;BME280;49105;46.046;10.760;2023-05-11T06:37:33;95140.47;;;11.47;76.40
63019;BME280;49105;46.046;10.760;2023-05-11T06:39:59;95134.50;;;11.55;75.83
63019;BME280;49105;46.046;10.760;2023-05-11T06:42:24;95138.06;;;11.64;76.14
63019;BME280;49105;46.046;10.760;2023-05-11T06:44:50;95139.34;;;11.66;75.80
63019;BME280;49105;46.046;10.760;2023-05-11T06:47:15;95135.13;;;11.65;75.80
63019;BME280;49105;46.046;10.760;2023-05-11T06:49:40;95133.75;;;11.68;75.72
63019;BME280;49105;46.046;10.760;2023-05-11T06:52:06;95140.25;;;11.76;76.15
63019;BME280;49105;46.046;10.760;2023-05-11T06:54:32;95134.59;;;11.82;75.42
63019;BME280;49105;46.046;10.760;2023-05-11T06:56:58;95137.91;;;11.74;75.14
63019;BME280;49105;46.046;10.760;2023-05-11T06:59:23;95143.78;;;11.71;74.93
63019;BME280;49105;46.046;10.760;2023-05-11T07:01:49;95138.88;;;11.64;75.14
63019;BME280;49105;46.046;10.760;2023-05-11T07:04:14;95138.78;;;11.70;74.81
63019;BME280;49105;46.046;10.760;2023-05-11T07:06:40;95133.59;;;11.78;75.09
63019;BME280;49105;46.046;10.760;2023-05-11T07:09:05;95128.91;;;11.89;74.64
63019;BME280;49105;46.046;10.760;2023-05-11T07:11:30;95118.13;;;11.99;74.64
63019;BME280;49105;46.046;10.760;2023-05-11T07:13:56;95137.38;;;12.05;74.12
63019;BME280;49105;46.046;10.760;2023-05-11T07:16:21;95122.06;;;12.02;74.36
63019;BME280;49105;46.046;10.760;2023-05-11T07:18:47;95123.84;;;12.06;73.97
63019;BME280;49105;46.046;10.760;2023-05-11T07:21:12;95132.47;;;12.12;73.79
63019;BME280;49105;46.046;10.760;2023-05-11T07:23:38;95132.78;;;12.10;73.55
63019;BME280;49105;46.046;10.760;2023-05-11T07:26:03;95123.94;;;12.15;73.81
63019;BME280;49105;46.046;10.760;2023-05-11T07:28:33;95123.72;;;12.25;73.98
63019;BME280;49105;46.046;10.760;2023-05-11T07:30:58;95127.16;;;12.26;73.06
63019;BME280;49105;46.046;10.760;2023-05-11T07:33:23;95126.59;;;12.15;73.54
63019;BME280;49105;46.046;10.760;2023-05-11T07:35:50;95125.41;;;12.07;73.20
63019;BME280;49105;46.046;10.760;2023-05-11T07:38:15;95127.75;;;12.09;73.81
63019;BME280;49105;46.046;10.760;2023-05-11T07:40:42;95123.84;;;12.06;73.20
63019;BME280;49105;46.046;10.760;2023-05-11T07:43:07;95122.06;;;12.02;73.39
63019;BME280;49105;46.046;10.760;2023-05-11T07:45:32;95128.94;;;12.03;73.35
63019;BME280;49105;46.046;10.760;2023-05-11T07:47:58;95125.22;;;12.04;72.92
63019;BME280;49105;46.046;10.760;2023-05-11T07:50:23;95128.75;;;12.13;72.63
63019;BME280;49105;46.046;10.760;2023-05-11T07:52:48;95131.50;;;12.22;72.32
63019;BME280;49105;46.046;10.760;2023-05-11T07:55:14;95122.69;;;12.26;72.11
63019;BME280;49105;46.046;10.760;2023-05-11T07:57:39;95126.69;;;12.24;71.82
63019;BME280;49105;46.046;10.760;2023-05-11T08:00:06;95127.38;;;12.29;72.34
63019;BME280;49105;46.046;10.760;2023-05-11T08:02:32;95130.31;;;12.28;72.35
63019;BME280;49105;46.046;10.760;2023-05-11T08:04:57;95134.16;;;12.35;72.45
63019;BME280;49105;46.046;10.760;2023-05-11T08:07:22;95130.94;;;12.38;71.72
63019;BME280;49105;46.046;10.760;2023-05-11T08:09:48;95127.00;;;12.36;71.15
63019;BME280;49105;46.046;10.760;2023-05-11T08:12:14;95130.91;;;12.25;71.28
63019;BME280;49105;46.046;10.760;2023-05-11T08:14:39;95129.94;;;12.07;71.15
63019;BME280;49105;46.046;10.760;2023-05-11T08:17:07;95132.69;;;12.02;71.07
63019;BME280;49105;46.046;10.760;2023-05-11T08:19:32;95132.38;;;12.03;71.64
63019;BME280;49105;46.046;10.760;2023-05-11T08:21:57;95136.03;;;12.07;71.14
63019;BME280;49105;46.046;10.760;2023-05-11T08:24:23;95139.97;;;12.10;71.59
63019;BME280;49105;46.046;10.760;2023-05-11T08:26:48;95130.81;;;12.16;71.30
63019;BME280;49105;46.046;10.760;2023-05-11T08:29:13;95137.59;;;12.22;71.40
63019;BME280;49105;46.046;10.760;2023-05-11T08:31:39;95135.25;;;12.34;71.84
63019;BME280;49105;46.046;10.760;2023-05-11T08:34:05;95139.75;;;12.48;71.18
63019;BME280;49105;46.046;10.760;2023-05-11T08:36:30;95143.00;;;12.31;71.26
63019;BME280;49105;46.046;10.760;2023-05-11T08:38:56;95139.75;;;12.20;71.26
63019;BME280;49105;46.046;10.760;2023-05-11T08:41:21;95135.91;;;12.12;71.42
63019;BME280;49105;46.046;10.760;2023-05-11T08:43:46;95129.72;;;12.03;71.68
63019;BME280;49105;46.046;10.760;2023-05-11T08:46:13;95128.50;;;11.82;71.50
63019;BME280;49105;46.046;10.760;2023-05-11T08:48:41;95130.41;;;11.62;72.12
63019;BME280;49105;46.046;10.760;2023-05-11T08:51:08;95126.78;;;11.58;71.79
63019;BME280;49105;46.046;10.760;2023-05-11T08:53:33;95130.63;;;11.66;72.03
63019;BME280;49105;46.046;10.760;2023-05-11T08:55:58;95131.72;;;11.79;72.05
63019;BME280;49105;46.046;10.760;2023-05-11T08:58:25;95124.66;;;11.74;71.65
63019;BME280;49105;46.046;10.760;2023-05-11T09:00:51;95130.31;;;11.67;71.97
63019;BME280;49105;46.046;10.760;2023-05-11T09:03:17;95125.63;;;11.64;72.20
63019;BME280;49105;46.046;10.760;2023-05-11T09:05:44;95130.63;;;11.66;72.09
63019;BME280;49105;46.046;10.760;2023-05-11T09:08:09;95126.09;;;11.66;72.23
63019;BME280;49105;46.046;10.760;2023-05-11T09:10:36;95128.38;;;11.73;72.07
63019;BME280;49105;46.046;10.760;2023-05-11T09:13:02;95122.25;;;11.91;72.01
63019;BME280;49105;46.046;10.760;2023-05-11T09:15:27;95121.09;;;11.98;71.51
63019;BME280;49105;46.046;10.760;2023-05-11T09:17:52;95117.03;;;12.00;71.83
63019;BME280;49105;46.046;10.760;2023-05-11T09:20:25;95126.19;;;12.08;71.91
63019;BME280;49105;46.046;10.760;2023-05-11T09:22:50;95124.22;;;12.00;71.26
63019;BME280;49105;46.046;10.760;2023-05-11T09:25:17;95124.78;;;11.97;71.25
63019;BME280;49105;46.046;10.760;2023-05-11T09:27:43;95123.13;;;12.01;71.25
63019;BME280;49105;46.046;10.760;2023-05-11T09:30:09;95126.50;;;12.06;70.89
63019;BME280;49105;46.046;10.760;2023-05-11T09:32:45;95121.00;;;12.03;70.47
63019;BME280;49105;46.046;10.760;2023-05-11T09:35:20;95124.22;;;12.00;70.43
63019;BME280;49105;46.046;10.760;2023-05-11T09:38:05;95123.22;;;11.96;70.43
63019;BME280;49105;46.046;10.760;2023-05-11T09:40:31;95123.22;;;11.96;70.73
63019;BME280;49105;46.046;10.760;2023-05-11T09:42:57;95124.00;;;11.96;70.93
63019;BME280;49105;46.046;10.760;2023-05-11T09:45:38;95119.22;;;11.98;70.86
63019;BME280;49105;46.046;10.760;2023-05-11T09:48:05;95118.91;;;12.00;71.11
63019;BME280;49105;46.046;10.760;2023-05-11T09:50:31;95125.59;;;11.97;70.47
63019;BME280;49105;46.046;10.760;2023-05-11T09:52:57;95126.78;;;11.91;70.56
63019;BME280;49105;46.046;10.760;2023-05-11T09:55:22;95122.25;;;11.91;70.88
63019;BME280;49105;46.046;10.760;2023-05-11T09:57:57;95125.41;;;11.94;70.91
63019;BME280;49105;46.046;10.760;2023-05-11T10:00:32;95122.25;;;12.05;71.09
63019;BME280;49105;46.046;10.760;2023-05-11T10:03:04;95122.44;;;12.09;70.80
63019;BME280;49105;46.046;10.760;2023-05-11T10:05:31;95108.91;;;12.10;70.89
63019;BME280;49105;46.046;10.760;2023-05-11T10:08:00;95108.50;;;12.17;70.81
63019;BME280;49105;46.046;10.760;2023-05-11T10:10:26;95124.03;;;12.24;70.83
63019;BME280;49105;46.046;10.760;2023-05-11T10:12:53;95121.69;;;12.22;71.24
63019;BME280;49105;46.046;10.760;2023-05-11T10:15:19;95121.69;;;12.22;71.09
63019;BME280;49105;46.046;10.760;2023-05-11T10:17:51;95117.75;;;12.20;71.08
63019;BME280;49105;46.046;10.760;2023-05-11T10:20:18;95112.91;;;12.22;71.30
63019;BME280;49105;46.046;10.760;2023-05-11T10:22:44;95118.22;;;12.22;71.21
63019;BME280;49105;46.046;10.760;2023-05-11T10:25:10;95114.72;;;12.26;71.01
63019;BME280;49105;46.046;10.760;2023-05-11T10:27:36;95115.38;;;12.32;71.09
63019;BME280;49105;46.046;10.760;2023-05-11T10:30:02;95117.03;;;12.41;71.39
63019;BME280;49105;46.046;10.760;2023-05-11T10:32:28;95112.44;;;12.47;71.05
63019;BME280;49105;46.046;10.760;2023-05-11T10:34:53;95113.41;;;12.51;70.49
63019;BME280;49105;46.046;10.760;2023-05-11T10:37:20;95106.13;;;12.57;71.22
63019;BME280;49105;46.046;10.760;2023-05-11T10:39:46;95101.00;;;12.60;70.50
63019;BME280;49105;46.046;10.760;2023-05-11T10:52:42;95089.81;;;12.63;70.99
63019;BME280;49105;46.046;10.760;2023-05-11T10:55:14;95087.03;;;12.69;71.13
63019;BME280;49105;46.046;10.760;2023-05-11T10:58:03;95082.25;;;12.79;71.03
63019;BME280;49105;46.046;10.760;2023-05-11T11:03:15;95081.75;;;12.91;70.80
63019;BME280;49105;46.046;10.760;2023-05-11T11:05:40;95083.84;;;12.80;71.10
63019;BME280;49105;46.046;10.760;2023-05-11T11:08:07;95076.78;;;12.76;71.12
63019;BME280;49105;46.046;10.760;2023-05-11T11:10:34;95077.66;;;12.85;70.76
63019;BME280;49105;46.046;10.760;2023-05-11T11:13:06;95085.19;;;12.91;70.76
63019;BME280;49105;46.046;10.760;2023-05-11T11:18:20;95085.19;;;12.91;70.77
63019;BME280;49105;46.046;10.760;2023-05-11T11:20:47;95085.50;;;12.90;70.29
63019;BME280;49105;46.046;10.760;2023-05-11T11:25:57;95079.88;;;12.91;69.97
63019;BME280;49105;46.046;10.760;2023-05-11T11:28:22;95076.41;;;13.05;70.33
63019;BME280;49105;46.046;10.760;2023-05-11T11:30:47;95071.81;;;12.97;70.18
63019;BME280;49105;46.046;10.760;2023-05-11T11:38:05;95071.69;;;13.02;70.17
63019;BME280;49105;46.046;10.760;2023-05-11T11:40:38;95070.19;;;13.09;70.01
63019;BME280;49105;46.046;10.760;2023-05-11T11:43:13;95067.75;;;13.22;70.29
63019;BME280;49105;46.046;10.760;2023-05-11T11:46:01;95059.28;;;13.33;70.03
63019;BME280;49105;46.046;10.760;2023-05-11T11:56:00;95045.16;;;13.55;69.70
63019;BME280;49105;46.046;10.760;2023-05-11T12:01:21;95047.47;;;13.79;69.21
63019;BME280;49105;46.046;10.760;2023-05-11T12:06:19;95048.91;;;13.94;68.39
63019;BME280;49105;46.046;10.760;2023-05-11T12:08:45;95041.81;;;13.81;68.87
63019;BME280;49105;46.046;10.760;2023-05-11T12:11:14;95040.56;;;13.78;69.15
63019;BME280;49105;46.046;10.760;2023-05-11T12:13:41;95038.25;;;13.85;68.94
63019;BME280;49105;46.046;10.760;2023-05-11T12:16:10;95042.81;;;13.94;69.01
63019;BME280;49105;46.046;10.760;2023-05-11T12:18:36;95031.91;;;14.04;68.58
63019;BME280;49105;46.046;10.760;2023-05-11T12:21:01;95030.69;;;14.19;68.54
63019;BME280;49105;46.046;10.760;2023-05-11T12:23:27;95031.63;;;14.31;68.14
63019;BME280;49105;46.046;10.760;2023-05-11T12:25:59;95030.72;;;14.36;67.88
63019;BME280;49105;46.046;10.760;2023-05-11T12:28:24;95023.66;;;14.40;67.98
63019;BME280;49105;46.046;10.760;2023-05-11T12:30:53;95022.88;;;14.48;67.92
63019;BME280;49105;46.046;10.760;2023-05-11T12:33:19;95020.75;;;14.59;67.48
63019;BME280;49105;46.046;10.760;2023-05-11T12:35:44;95016.84;;;14.82;67.28
63019;BME280;49105;46.046;10.760;2023-05-11T12:38:10;95014.00;;;14.96;66.67
63019;BME280;49105;46.046;10.760;2023-05-11T12:40:35;95008.81;;;15.08;66.41
63019;BME280;49105;46.046;10.760;2023-05-11T12:43:02;95009.91;;;15.16;65.77
63019;BME280;49105;46.046;10.760;2023-05-11T12:45:27;95014.28;;;15.21;65.66
63019;BME280;49105;46.046;10.760;2023-05-11T12:47:54;95008.63;;;15.22;65.77
63019;BME280;49105;46.046;10.760;2023-05-11T12:50:20;95004.88;;;15.23;65.81
63019;BME280;49105;46.046;10.760;2023-05-11T12:52:46;94995.78;;;15.24;65.31
63019;BME280;49105;46.046;10.760;2023-05-11T12:55:12;94994.03;;;15.28;65.13
63019;BME280;49105;46.046;10.760;2023-05-11T12:57:38;94996.25;;;15.35;64.90
63019;BME280;49105;46.046;10.760;2023-05-11T13:02:32;94997.28;;;15.51;64.83
63019;BME280;49105;46.046;10.760;2023-05-11T13:04:57;94986.63;;;15.43;65.06
63019;BME280;49105;46.046;10.760;2023-05-11T13:07:23;94990.28;;;15.21;65.20
63019;BME280;49105;46.046;10.760;2023-05-11T13:09:59;94993.41;;;15.31;65.29
63019;BME280;49105;46.046;10.760;2023-05-11T13:12:24;94985.53;;;15.44;65.15
63019;BME280;49105;46.046;10.760;2023-05-11T13:15:02;94984.28;;;15.41;65.13
63019;BME280;49105;46.046;10.760;2023-05-11T13:17:31;94981.28;;;15.43;65.02
63019;BME280;49105;46.046;10.760;2023-05-11T13:22:43;94971.84;;;15.54;65.12
63019;BME280;49105;46.046;10.760;2023-05-11T13:25:09;94978.09;;;15.67;65.01
63019;BME280;49105;46.046;10.760;2023-05-11T13:27:35;94971.16;;;15.74;64.18
63019;BME280;49105;46.046;10.760;2023-05-11T13:30:01;94966.81;;;15.61;63.87
63019;BME280;49105;46.046;10.760;2023-05-11T13:32:26;94968.72;;;15.52;64.05
63019;BME280;49105;46.046;10.760;2023-05-11T13:34:51;94967.63;;;15.53;64.11
63019;BME280;49105;46.046;10.760;2023-05-11T13:37:16;94961.03;;;15.50;63.74
63019;BME280;49105;46.046;10.760;2023-05-11T13:39:42;94954.47;;;15.48;63.81
63019;BME280;49105;46.046;10.760;2023-05-11T13:42:07;94957.59;;;15.50;63.70
63019;BME280;49105;46.046;10.760;2023-05-11T13:44:32;94954.56;;;15.60;63.87
63019;BME280;49105;46.046;10.760;2023-05-11T13:46:58;94954.22;;;15.70;63.46
63019;BME280;49105;46.046;10.760;2023-05-11T13:49:23;94951.75;;;15.65;62.31
63019;BME280;49105;46.046;10.760;2023-05-11T13:51:48;94958.66;;;15.66;62.55
63019;BME280;49105;46.046;10.760;2023-05-11T13:54:13;94954.09;;;15.58;62.57
63019;BME280;49105;46.046;10.760;2023-05-11T13:56:39;94962.72;;;15.55;62.51
63019;BME280;49105;46.046;10.760;2023-05-11T13:59:04;94955.44;;;15.43;62.43
63019;BME280;49105;46.046;10.760;2023-05-11T14:01:29;94957.81;;;15.36;61.97
63019;BME280;49105;46.046;10.760;2023-05-11T14:03:55;94957.16;;;15.30;62.07
63019;BME280;49105;46.046;10.760;2023-05-11T14:06:21;94955.63;;;15.29;61.93
63019;BME280;49105;46.046;10.760;2023-05-11T14:08:47;94942.41;;;15.42;62.14
63019;BME280;49105;46.046;10.760;2023-05-11T14:11:12;94952.72;;;15.52;62.24
63019;BME280;49105;46.046;10.760;2023-05-11T14:13:38;94955.22;;;15.57;62.36
63019;BME280;49105;46.046;10.760;2023-05-11T14:16:03;94955.34;;;15.69;62.17
63019;BME280;49105;46.046;10.760;2023-05-11T14:18:29;94958.66;;;15.66;62.19
63019;BME280;49105;46.046;10.760;2023-05-11T14:20:55;94953.31;;;15.66;61.91
63019;BME280;49105;46.046;10.760;2023-05-11T14:23:20;94950.94;;;15.73;62.13
63019;BME280;49105;46.046;10.760;2023-05-11T14:25:46;94949.19;;;15.77;61.76
63019;BME280;49105;46.046;10.760;2023-05-11T14:28:11;94948.41;;;15.77;61.75
63019;BME280;49105;46.046;10.760;2023-05-11T14:30:36;94954.53;;;15.77;61.91
63019;BME280;49105;46.046;10.760;2023-05-11T14:33:01;94955.34;;;15.69;61.61
63019;BME280;49105;46.046;10.760;2023-05-11T14:35:27;94951.75;;;15.65;61.97
63019;BME280;49105;46.046;10.760;2023-05-11T14:37:52;94950.97;;;15.65;62.14
63019;BME280;49105;46.046;10.760;2023-05-11T14:40:18;94955.00;;;15.71;62.27
63019;BME280;49105;46.046;10.760;2023-05-11T14:42:43;94948.25;;;15.73;62.16
63019;BME280;49105;46.046;10.760;2023-05-11T14:45:09;94947.78;;;15.71;62.09
63019;BME280;49105;46.046;10.760;2023-05-11T14:47:35;94944.81;;;15.73;62.28
63019;BME280;49105;46.046;10.760;2023-05-11T14:50:00;94945.13;;;15.71;62.28
63019;BME280;49105;46.046;10.760;2023-05-11T14:52:25;94953.91;;;15.63;62.30